Time;durP1;ratioP1;P1;durP2;ratioP2;P2;SDS_P1;SDS_P2;PMS_P1;PMS_P2;Temp;Humidity;BMP_temperature;BMP_pressure;BME280_temperature;BME280_humidity;BME280_pressure;Samples;Min_cycle;Max_cycle;Signal;HPM_P1;HPM_P2
2022/05/24 00:02:19;;;;;;;6.07;2.08;;;486.80;1792.00;;;;;;4996816;28;20096;-76
2022/05/24 00:04:45;;;;;;;5.15;1.95;;;487.00;1766.40;;;;;;5014584;28;20021;-75
2022/05/24 00:07:11;;;;;;;5.05;2.97;;;487.00;1740.80;;;;;;5014455;28;20026;-75
2022/05/24 00:09:37;;;;;;;11.02;2.30;;;487.00;1740.80;;;;;;5014718;28;20033;-75
2022/05/24 00:12:03;;;;;;;4.07;2.00;;;487.00;1740.80;;;;;;5014697;28;20040;-75
2022/05/24 00:17:13;;;;;;;5.88;2.50;;;486.80;1792.00;;;;;;5013643;28;20041;-74
2022/05/24 00:19:39;;;;;;;3.45;1.98;;;486.80;1817.60;;;;;;4996530;28;20042;-74
2022/05/24 00:22:05;;;;;;;4.47;2.53;;;486.80;1792.00;;;;;;5014588;28;20414;-75
2022/05/24 00:24:31;;;;;;;3.97;2.38;;;487.00;1792.00;;;;;;5014255;28;20037;-75
2022/05/24 00:26:56;;;;;;;4.78;2.20;;;487.00;1766.40;;;;;;5014455;28;20101;-74
2022/05/24 00:29:22;;;;;;;5.07;2.38;;;487.00;1766.40;;;;;;4994108;28;20022;-74
2022/05/24 00:31:48;;;;;;;4.93;1.80;;;487.10;1766.40;;;;;;5014116;28;20478;-75
2022/05/24 00:34:14;;;;;;;3.80;1.92;;;487.10;1740.80;;;;;;4996610;28;20041;-74
2022/05/24 00:36:39;;;;;;;4.57;2.33;;;487.10;1740.80;;;;;;5014030;28;20022;-75
2022/05/24 00:39:05;;;;;;;4.82;2.30;;;487.10;1740.80;;;;;;5014152;28;20033;-75
2022/05/24 00:41:38;;;;;;;4.43;2.08;;;487.00;1740.80;;;;;;5013990;28;20076;-74
2022/05/24 00:44:09;;;;;;;3.85;2.20;;;487.00;1740.80;;;;;;5011571;28;20050;-74
2022/05/24 00:46:43;;;;;;;4.47;2.30;;;486.90;1792.00;;;;;;5013815;28;20022;-74
2022/05/24 00:49:17;;;;;;;3.58;2.25;;;487.00;1792.00;;;;;;5011770;28;20022;-74
2022/05/24 00:51:49;;;;;;;4.03;2.17;;;487.00;1792.00;;;;;;5013765;28;20478;-77
2022/05/24 00:54:15;;;;;;;3.95;2.47;;;487.00;1792.00;;;;;;5013631;28;20104;-75
2022/05/24 00:56:58;;;;;;;3.80;2.10;;;487.00;1817.60;;;;;;5013830;28;20029;-74
2022/05/24 00:59:31;;;;;;;8.00;2.33;;;487.00;1817.60;;;;;;5010791;28;20116;-74
2022/05/24 01:01:58;;;;;;;12.57;2.17;;;487.00;1817.60;;;;;;5013581;28;20024;-79
2022/05/24 01:04:24;;;;;;;4.13;2.38;;;487.00;1817.60;;;;;;5013650;28;20109;-75
2022/05/24 01:06:50;;;;;;;6.30;2.78;;;486.80;1817.60;;;;;;5013501;28;20534;-74
2022/05/24 01:09:29;;;;;;;7.50;2.55;;;486.60;1792.00;;;;;;5013804;28;20026;-75
2022/05/24 01:12:00;;;;;;;6.97;2.78;;;487.00;1792.00;;;;;;5012119;28;20029;-75
2022/05/24 01:14:27;;;;;;;9.23;3.08;;;487.00;1792.00;;;;;;5013159;28;20010;-75
2022/05/24 01:16:54;;;;;;;4.75;2.85;;;487.00;1792.00;;;;;;5012687;28;21117;-75
2022/05/24 01:19:41;;;;;;;6.93;2.90;;;486.80;1817.60;;;;;;5013275;28;20037;-77
2022/05/24 01:22:25;;;;;;;7.85;3.67;;;486.80;1843.20;;;;;;5010752;28;20080;-75
2022/05/24 01:25:14;;;;;;;8.35;2.95;;;486.80;1817.60;;;;;;5011292;28;20164;-77
2022/05/24 01:27:40;;;;;;;7.88;3.67;;;486.80;1817.60;;;;;;4995597;28;20018;-77
2022/05/24 01:30:08;;;;;;;7.13;3.72;;;486.80;1792.00;;;;;;5010575;28;20033;-74
2022/05/24 01:38:08;;;;;;;12.18;3.97;;;486.80;1792.00;;;;;;5012908;28;20025;-77
2022/05/24 01:40:34;;;;;;;7.40;4.32;;;486.80;1817.60;;;;;;4995561;28;20056;-75
2022/05/24 01:43:00;;;;;;;9.23;3.80;;;486.70;1843.20;;;;;;5012978;28;20026;-75
2022/05/24 01:45:34;;;;;;;7.57;3.60;;;486.60;1868.80;;;;;;5013039;28;20041;-74
2022/05/24 01:48:08;;;;;;;13.35;4.45;;;486.60;1868.80;;;;;;5012615;28;20018;-75
2022/05/24 01:50:36;;;;;;;8.02;3.92;;;486.60;1868.80;;;;;;5010978;28;20021;-75
2022/05/24 01:53:23;;;;;;;10.60;3.92;;;486.70;1868.80;;;;;;5012708;28;20513;-74
2022/05/24 01:55:52;;;;;;;9.43;3.55;;;486.80;1843.20;;;;;;5012600;28;20026;-75
2022/05/24 01:58:23;;;;;;;6.78;3.33;;;486.90;1843.20;;;;;;4995037;28;20022;-74
2022/05/24 02:01:16;;;;;;;10.32;4.18;;;486.90;1817.60;;;;;;5010073;28;20093;-76
2022/05/24 02:03:41;;;;;;;11.02;3.83;;;487.10;1817.60;;;;;;5003689;28;20068;-75
2022/05/24 02:06:23;;;;;;;7.47;3.85;;;487.20;1792.00;;;;;;5012783;28;20025;-74
2022/05/24 02:08:49;;;;;;;13.57;4.13;;;487.20;1766.40;;;;;;5010019;28;20041;-74
2022/05/24 02:11:17;;;;;;;9.73;4.13;;;487.20;1792.00;;;;;;5012287;28;20014;-75
2022/05/24 02:13:46;;;;;;;11.43;4.40;;;487.10;1792.00;;;;;;5012508;28;20037;-75
2022/05/24 02:16:17;;;;;;;16.02;4.47;;;487.10;1792.00;;;;;;5010216;28;20014;-75
2022/05/24 02:18:48;;;;;;;11.48;4.55;;;487.30;1766.40;;;;;;5012397;28;20026;-75
2022/05/24 02:21:13;;;;;;;9.68;4.32;;;487.30;1740.80;;;;;;5010076;28;20514;-75
2022/05/24 02:23:45;;;;;;;9.70;4.72;;;487.30;1740.80;;;;;;5011979;28;20046;-75
2022/05/24 02:26:13;;;;;;;8.82;4.00;;;487.30;1740.80;;;;;;5009896;28;20145;-74
2022/05/24 02:28:39;;;;;;;10.90;2.90;;;512.00;1740.80;;;;;;5012045;28;20026;-75
2022/05/24 02:31:09;;;;;;;7.53;3.50;;;512.00;1740.80;;;;;;5012404;28;20104;-74
2022/05/24 02:33:35;;;;;;;4.70;2.95;;;487.30;1740.80;;;;;;5012082;28;20025;-74
2022/05/24 02:36:02;;;;;;;7.65;3.67;;;487.10;1766.40;;;;;;5012215;28;20025;-74
2022/05/24 02:38:27;;;;;;;9.48;2.90;;;487.10;1766.40;;;;;;5011774;28;20022;-74
2022/05/24 02:43:39;;;;;;;5.07;2.70;;;487.10;1843.20;;;;;;5010778;28;20029;-75
2022/05/24 02:46:06;;;;;;;5.38;2.58;;;487.00;1843.20;;;;;;5011911;28;20026;-74
2022/05/24 02:48:31;;;;;;;5.50;2.88;;;487.00;1868.80;;;;;;5009558;28;20103;-75
2022/05/24 02:50:57;;;;;;;8.00;2.92;;;486.80;1945.60;;;;;;5011742;28;20474;-74
2022/05/24 02:53:25;;;;;;;7.65;2.70;;;486.80;1971.20;;;;;;5011986;28;20056;-74
2022/05/24 02:55:51;;;;;;;5.90;2.13;;;486.70;2048.00;;;;;;5009164;28;20025;-75
2022/05/24 02:58:17;;;;;;;2.80;2.08;;;486.60;2099.20;;;;;;5011652;28;20030;-75
2022/05/24 03:00:43;;;;;;;4.18;1.73;;;486.60;2099.20;;;;;;5011937;28;20026;-75
2022/05/24 03:03:09;;;;;;;4.25;2.00;;;486.80;2099.20;;;;;;5011667;28;20093;-75
2022/05/24 03:05:35;;;;;;;7.45;2.30;;;487.00;2073.60;;;;;;5011876;28;20110;-77
2022/05/24 03:10:45;;;;;;;3.90;2.00;;;487.00;2048.00;;;;;;5011149;28;20079;-75
2022/05/24 03:15:56;;;;;;;6.97;2.42;;;487.00;2022.40;;;;;;5009848;28;20071;-75
2022/05/24 03:18:22;;;;;;;9.80;2.38;;;487.10;2022.40;;;;;;5011658;28;20030;-74
2022/05/24 03:20:49;;;;;;;8.43;2.30;;;487.00;2048.00;;;;;;5011423;28;20037;-75
2022/05/24 03:23:16;;;;;;;4.22;2.00;;;486.90;2073.60;;;;;;5010936;28;20097;-74
2022/05/24 03:25:42;;;;;;;3.88;1.70;;;486.70;2048.00;;;;;;5010668;28;20049;-74
2022/05/24 03:28:09;;;;;;;4.03;2.33;;;486.80;2048.00;;;;;;5010899;28;20462;-75
2022/05/24 03:30:40;;;;;;;9.65;2.58;;;487.00;2022.40;;;;;;5010622;28;20084;-74
2022/05/24 03:33:06;;;;;;;9.02;1.85;;;487.00;1996.80;;;;;;5010358;28;20374;-75
2022/05/24 03:35:32;;;;;;;11.82;2.22;;;486.80;2022.40;;;;;;5010704;28;20033;-75
2022/05/24 03:37:57;;;;;;;6.95;2.58;;;486.70;2073.60;;;;;;5010411;28;20544;-75
2022/05/24 03:40:23;;;;;;;14.52;2.67;;;486.70;2099.20;;;;;;5012697;28;20486;-75
2022/05/24 03:42:51;;;;;;;7.05;2.58;;;486.70;2150.40;;;;;;5013759;28;20161;-75
2022/05/24 03:45:18;;;;;;;8.05;3.17;;;486.70;2150.40;;;;;;5014013;28;20033;-75
2022/05/24 03:47:44;;;;;;;5.57;2.50;;;486.80;2124.80;;;;;;4996239;28;20026;-75
2022/05/24 03:50:10;;;;;;;7.75;3.13;;;486.70;2150.40;;;;;;5013859;28;20081;-75
2022/05/24 03:52:36;;;;;;;9.68;3.13;;;486.60;2176.00;;;;;;5013583;28;20029;-75
2022/05/24 03:55:03;;;;;;;5.45;2.70;;;486.60;2176.00;;;;;;5013726;28;20037;-74
2022/05/24 04:00:15;;;;;;;6.93;2.85;;;486.70;2176.00;;;;;;5013864;28;20048;-75
2022/05/24 04:02:41;;;;;;;7.95;2.80;;;486.70;2227.20;;;;;;5014445;28;20073;-76
2022/05/24 04:05:08;;;;;;;7.97;2.60;;;486.70;2150.40;;;;;;5013813;28;20045;-75
2022/05/24 04:07:33;;;;;;;5.43;2.47;;;486.60;2176.00;;;;;;4996400;28;20026;-76
2022/05/24 04:10:01;;;;;;;6.50;2.90;;;486.60;2201.60;;;;;;5013919;28;20033;-77
2022/05/24 04:12:26;;;;;;;6.47;2.60;;;486.50;2278.40;;;;;;4996169;28;20101;-77
2022/05/24 04:14:52;;;;;;;9.60;2.95;;;486.50;2304.00;;;;;;4995868;28;20121;-78
2022/05/24 04:17:18;;;;;;;7.47;2.85;;;486.50;2355.20;;;;;;5013351;28;20026;-73
2022/05/24 04:19:44;;;;;;;11.68;3.28;;;486.50;2380.80;;;;;;5013297;28;20041;-73
2022/05/24 04:22:09;;;;;;;5.38;2.45;;;486.40;2380.80;;;;;;4970321;28;1246775;-73
2022/05/24 04:24:35;;;;;;;5.70;2.45;;;461.70;2380.80;;;;;;5014956;28;20109;-76
2022/05/24 04:27:03;;;;;;;12.25;3.38;;;461.60;2355.20;;;;;;5014999;28;20025;-74
2022/05/24 04:29:29;;;;;;;7.15;2.88;;;461.70;2355.20;;;;;;5014999;28;20018;-73
2022/05/24 04:31:55;;;;;;;7.32;2.88;;;486.40;2304.00;;;;;;5014601;28;20501;-73
2022/05/24 04:34:21;;;;;;;4.97;2.40;;;486.50;2201.60;;;;;;5014619;28;20488;-77
2022/05/24 04:36:46;;;;;;;4.40;2.20;;;486.60;2201.60;;;;;;5014882;28;20037;-75
2022/05/24 04:39:13;;;;;;;4.68;1.95;;;486.80;2124.80;;;;;;5014481;28;20475;-77
2022/05/24 04:44:23;;;;;;;12.63;2.70;;;487.00;2124.80;;;;;;5014518;28;20037;-76
2022/05/24 04:47:07;;;;;;;3.10;2.00;;;487.10;2073.60;;;;;;5013913;28;20022;-73
2022/05/24 04:49:35;;;;;;;6.05;2.28;;;487.10;2022.40;;;;;;5013679;28;20033;-79
2022/05/24 04:52:00;;;;;;;3.92;1.35;;;487.20;1945.60;;;;;;5012184;28;20041;-77
2022/05/24 04:54:26;;;;;;;4.93;1.52;;;487.20;1843.20;;;;;;5014026;28;20409;-80
2022/05/24 04:56:52;;;;;;;4.45;1.42;;;487.30;1894.40;;;;;;5013662;28;20041;-73
2022/05/24 04:59:18;;;;;;;5.93;1.60;;;487.30;1920.00;;;;;;5013958;28;20033;-74
2022/05/24 05:01:44;;;;;;;5.90;1.85;;;512.10;1945.60;;;;;;5013700;28;20049;-74
2022/05/24 05:04:11;;;;;;;7.30;1.55;;;512.10;1996.80;;;;;;4996430;28;20053;-76
2022/05/24 05:06:37;;;;;;;7.38;3.03;;;512.20;2073.60;;;;;;5013593;28;20037;-75
2022/05/24 05:09:03;;;;;;;4.47;1.30;;;512.20;2073.60;;;;;;5013537;28;20064;-75
2022/05/24 05:11:29;;;;;;;5.45;1.90;;;512.30;2022.40;;;;;;4996157;28;20311;-74
2022/05/24 05:13:55;;;;;;;3.05;1.55;;;512.40;1996.80;;;;;;5013296;28;20044;-74
2022/05/24 05:16:20;;;;;;;4.07;1.73;;;512.30;2022.40;;;;;;5013812;28;20025;-77
2022/05/24 05:18:46;;;;;;;6.97;1.88;;;512.50;2022.40;;;;;;5013553;28;20021;-78
2022/05/24 05:21:12;;;;;;;4.50;1.70;;;512.70;1971.20;;;;;;5013964;28;20045;-76
2022/05/24 05:23:38;;;;;;;3.20;1.75;;;512.70;2048.00;;;;;;5013683;28;20056;-75
2022/05/24 05:26:03;;;;;;;4.45;1.95;;;512.80;1971.20;;;;;;5014106;28;20053;-81
2022/05/24 05:28:29;;;;;;;8.02;2.00;;;512.90;1945.60;;;;;;5013813;28;20449;-76
2022/05/24 05:33:39;;;;;;;3.33;1.95;;;537.70;2048.00;;;;;;5014120;28;20497;-79
2022/05/24 05:36:05;;;;;;;4.88;2.20;;;537.70;1971.20;;;;;;5013503;28;20030;-75
2022/05/24 05:38:31;;;;;;;6.78;2.40;;;537.70;1971.20;;;;;;5013835;28;20032;-76
2022/05/24 05:40:58;;;;;;;26.25;3.60;;;512.90;2124.80;;;;;;5013521;28;20478;-81
2022/05/24 05:43:24;;;;;;;16.17;3.33;;;512.30;1971.20;;;;;;5012717;28;20046;-74
2022/05/24 05:46:00;;;;;;;7.75;3.50;;;512.20;1945.60;;;;;;5011640;28;20025;-79
2022/05/24 05:48:26;;;;;;;10.57;3.20;;;487.30;1996.80;;;;;;5012968;28;20057;-75
2022/05/24 05:50:52;;;;;;;11.52;3.10;;;512.10;2048.00;;;;;;5012965;28;20033;-78
2022/05/24 05:53:19;;;;;;;7.82;3.10;;;512.00;2022.40;;;;;;5012771;28;20022;-77
2022/05/24 05:55:46;;;;;;;7.68;2.88;;;512.00;2022.40;;;;;;5013272;28;20065;-74
2022/05/24 05:58:12;;;;;;;10.27;2.72;;;512.10;2022.40;;;;;;5013274;28;20535;-80
2022/05/24 06:00:40;;;;;;;8.68;2.92;;;487.00;1996.80;;;;;;5012566;28;20113;-79
2022/05/24 06:03:06;;;;;;;12.10;2.95;;;512.10;2048.00;;;;;;5012638;28;20022;-76
2022/05/24 06:05:32;;;;;;;11.48;2.80;;;512.30;2073.60;;;;;;5012801;28;20028;-79
2022/05/24 06:07:59;;;;;;;9.57;2.42;;;512.10;2048.00;;;;;;5012855;28;20017;-76
2022/05/24 06:10:25;;;;;;;13.18;2.90;;;512.50;2048.00;;;;;;5012676;28;20049;-75
2022/05/24 06:12:51;;;;;;;8.73;2.67;;;512.50;1996.80;;;;;;5013109;28;20053;-80
2022/05/24 06:15:17;;;;;;;9.77;2.30;;;512.60;1945.60;;;;;;5013193;28;20061;-76
2022/05/24 06:17:45;;;;;;;11.07;2.80;;;512.60;1996.80;;;;;;5013357;28;20030;-79
2022/05/24 06:20:11;;;;;;;15.65;2.95;;;512.70;1894.40;;;;;;5012887;28;20034;-75
2022/05/24 06:22:37;;;;;;;13.45;2.67;;;512.80;1945.60;;;;;;5012876;28;20077;-80
2022/05/24 06:25:04;;;;;;;10.65;2.22;;;512.90;1945.60;;;;;;5013045;28;20447;-77
2022/05/24 06:27:30;;;;;;;9.20;2.47;;;537.70;1971.20;;;;;;5013103;28;20018;-81
2022/05/24 06:29:55;;;;;;;11.52;3.05;;;537.70;1920.00;;;;;;5012947;28;20026;-81
2022/05/24 06:32:21;;;;;;;6.88;2.28;;;538.00;1894.40;;;;;;5013033;28;20022;-79
2022/05/24 06:34:48;;;;;;;8.18;2.30;;;538.30;1843.20;;;;;;5012820;28;20034;-76
2022/05/24 06:37:15;;;;;;;5.18;2.10;;;538.40;1843.20;;;;;;5012839;28;20018;-79
2022/05/24 06:39:41;;;;;;;7.75;2.40;;;538.40;1843.20;;;;;;5012850;28;20034;-79
2022/05/24 06:42:07;;;;;;;4.70;2.25;;;538.50;1843.20;;;;;;5012813;28;20058;-80
2022/05/24 06:44:33;;;;;;;10.32;2.50;;;563.20;1868.80;;;;;;5013089;28;20050;-77
2022/05/24 06:46:59;;;;;;;8.45;2.60;;;563.30;1843.20;;;;;;5012675;28;20022;-78
2022/05/24 06:49:25;;;;;;;4.40;2.03;;;563.60;1843.20;;;;;;5012789;28;20084;-80
2022/05/24 06:51:50;;;;;;;11.50;2.88;;;563.70;1843.20;;;;;;5012434;28;20036;-76
2022/05/24 06:54:16;;;;;;;12.55;2.88;;;563.80;1792.00;;;;;;5013140;28;20057;-79
2022/05/24 06:56:42;;;;;;;5.50;2.40;;;564.00;1740.80;;;;;;5012526;28;20135;-80
2022/05/24 07:04:38;;;;;;;6.25;2.75;;;564.10;1766.40;;;;;;5012342;28;20033;-77
2022/05/24 07:07:04;;;;;;;6.35;2.50;;;564.10;1817.60;;;;;;5012772;28;20097;-77
2022/05/24 07:09:31;;;;;;;7.55;2.60;;;588.90;1817.60;;;;;;5012500;28;20474;-76
2022/05/24 07:12:00;;;;;;;7.68;2.50;;;563.90;1792.00;;;;;;5012245;28;20030;-77
2022/05/24 07:14:27;;;;;;;6.32;2.40;;;564.10;1817.60;;;;;;5013375;28;20030;-77
2022/05/24 07:16:53;;;;;;;4.93;2.45;;;564.10;1817.60;;;;;;5016255;28;20533;-80
2022/05/24 07:19:20;;;;;;;8.15;2.13;;;564.00;1792.00;;;;;;5016504;28;20038;-77
2022/05/24 07:21:46;;;;;;;3.78;2.22;;;563.80;1792.00;;;;;;5015952;28;20125;-77
2022/05/24 07:24:12;;;;;;;6.32;2.40;;;563.80;1817.60;;;;;;5016052;28;20132;-77
2022/05/24 07:26:38;;;;;;;16.15;2.30;;;563.90;1766.40;;;;;;5016089;28;20022;-78
2022/05/24 07:29:04;;;;;;;7.50;2.40;;;564.10;1740.80;;;;;;5016073;28;20018;-82
2022/05/24 07:31:30;;;;;;;5.78;2.42;;;589.00;1740.80;;;;;;5015813;28;20553;-75
2022/05/24 07:33:59;;;;;;;5.80;2.10;;;589.10;1740.80;;;;;;5015748;28;20061;-79
2022/05/24 07:36:26;;;;;;;7.55;3.13;;;589.10;1689.60;;;;;;5015742;28;20050;-74
2022/05/24 07:38:52;;;;;;;6.95;2.53;;;589.10;1664.00;;;;;;4997979;28;20076;-75
2022/05/24 07:46:46;;;;;;;5.45;2.88;;;589.30;1715.20;;;;;;5013226;28;20080;-74
2022/05/24 07:49:11;;;;;;;7.97;2.33;;;589.40;1664.00;;;;;;5015038;28;20018;-75
2022/05/24 07:51:37;;;;;;;6.20;2.25;;;589.50;1638.40;;;;;;5015099;28;20489;-75
2022/05/24 07:54:03;;;;;;;9.05;2.67;;;589.40;1664.00;;;;;;4998064;28;20482;-75
2022/05/24 07:56:29;;;;;;;6.63;2.67;;;589.40;1715.20;;;;;;5015328;28;20028;-75
2022/05/24 07:58:55;;;;;;;10.23;3.55;;;589.30;1689.60;;;;;;4997665;28;20075;-74
2022/05/24 08:01:23;;;;;;;8.88;2.80;;;589.30;1715.20;;;;;;5014902;28;20108;-76
2022/05/24 08:03:49;;;;;;;4.10;2.05;;;589.20;1740.80;;;;;;5014611;28;20038;-75
2022/05/24 08:06:17;;;;;;;18.85;3.40;;;589.20;1766.40;;;;;;5015008;28;20041;-74
2022/05/24 08:08:43;;;;;;;9.45;2.22;;;589.40;1766.40;;;;;;5012172;28;20418;-75
2022/05/24 08:11:10;;;;;;;5.45;2.85;;;589.30;1740.80;;;;;;5014901;28;20076;-77
2022/05/24 08:13:36;;;;;;;6.78;2.80;;;589.20;1817.60;;;;;;5014940;28;20398;-75
2022/05/24 08:16:03;;;;;;;8.15;2.60;;;589.00;1843.20;;;;;;5015322;28;20079;-81
2022/05/24 08:18:30;;;;;;;11.88;3.15;;;588.90;1868.80;;;;;;5014951;28;20470;-79
2022/05/24 08:20:57;;;;;;;12.82;3.20;;;564.10;1920.00;;;;;;5014970;28;20058;-79
2022/05/24 08:23:24;;;;;;;4.72;2.53;;;588.80;1945.60;;;;;;5014820;28;20136;-84
2022/05/24 08:25:50;;;;;;;6.80;2.92;;;588.80;1920.00;;;;;;5014908;28;20036;-74
2022/05/24 08:28:17;;;;;;;8.73;2.92;;;589.00;1945.60;;;;;;5015211;28;20021;-73
2022/05/24 08:30:43;;;;;;;7.38;3.25;;;589.00;1920.00;;;;;;5015064;28;20030;-83
2022/05/24 08:33:14;;;;;;;9.02;3.13;;;589.10;2022.40;;;;;;5014654;28;20028;-74
2022/05/24 08:35:42;;;;;;;6.95;2.92;;;589.30;1945.60;;;;;;5014079;28;20034;-75
2022/05/24 08:38:09;;;;;;;8.18;3.15;;;589.50;1945.60;;;;;;5014253;28;20438;-78
2022/05/24 08:40:38;;;;;;;6.75;3.30;;;589.60;1971.20;;;;;;5014282;28;20069;-76
2022/05/24 08:43:25;;;;;;;8.43;3.05;;;589.70;1945.60;;;;;;5012389;28;20025;-79
2022/05/24 08:48:52;;;;;;;9.00;3.35;;;589.60;1843.20;;;;;;5011590;28;20080;-78
2022/05/24 08:51:21;;;;;;;7.95;3.45;;;589.60;1945.60;;;;;;4993683;28;20038;-73
2022/05/24 08:53:50;;;;;;;8.85;3.72;;;589.70;1894.40;;;;;;5014095;28;20065;-74
2022/05/24 08:56:45;;;;;;;9.02;2.97;;;614.50;1894.40;;;;;;4996510;28;20022;-75
2022/05/24 08:59:34;;;;;;;10.80;3.72;;;614.60;1868.80;;;;;;4934654;29;20035;-79
2022/05/24 09:02:00;;;;;;;7.05;3.17;;;614.80;1971.20;;;;;;4935015;29;20023;-74
2022/05/24 09:04:27;;;;;;;7.07;3.15;;;615.10;1868.80;;;;;;4934812;29;20130;-76
2022/05/24 09:06:55;;;;;;;7.70;3.33;;;615.00;1868.80;;;;;;4934737;29;20102;-79
2022/05/24 09:09:26;;;;;;;16.13;4.18;;;614.90;1894.40;;;;;;4934751;29;20174;-77
2022/05/24 09:12:19;;;;;;;5.65;3.42;;;615.00;1894.40;;;;;;4932887;29;20031;-75
2022/05/24 09:15:13;;;;;;;10.25;3.20;;;615.00;1868.80;;;;;;4932627;29;20028;-74
2022/05/24 09:18:18;;;;;;;7.90;3.92;;;615.10;1843.20;;;;;;4931395;29;20032;-74
2022/05/24 09:20:45;;;;;;;4.93;3.03;;;615.20;1894.40;;;;;;4932961;29;20043;-76
2022/05/24 09:23:39;;;;;;;7.45;3.42;;;640.00;1868.80;;;;;;4933115;29;20044;-76
2022/05/24 09:26:17;;;;;;;8.88;3.80;;;640.20;1868.80;;;;;;4933735;29;20024;-77
2022/05/24 09:28:55;;;;;;;11.05;3.95;;;640.10;1843.20;;;;;;4934417;29;20044;-78
2022/05/24 09:31:26;;;;;;;10.02;3.38;;;640.40;1843.20;;;;;;4918864;29;20031;-77
2022/05/24 09:34:01;;;;;;;11.88;3.42;;;640.60;1843.20;;;;;;4934411;29;20039;-75
2022/05/24 09:36:35;;;;;;;8.63;3.38;;;640.70;1766.40;;;;;;4985362;28;20121;-76
2022/05/24 09:39:04;;;;;;;7.15;3.70;;;640.90;1792.00;;;;;;4993675;28;20391;-77
2022/05/24 09:41:30;;;;;;;7.05;3.13;;;665.90;1843.20;;;;;;4993906;28;20038;-77
2022/05/24 09:44:12;;;;;;;7.35;3.60;;;666.10;1817.60;;;;;;4993958;28;20180;-77
2022/05/24 09:46:41;;;;;;;7.45;3.33;;;666.30;1766.40;;;;;;4993846;28;20026;-82
2022/05/24 09:49:35;;;;;;;6.55;3.83;;;666.20;1689.60;;;;;;4994016;28;20466;-78
2022/05/24 09:52:12;;;;;;;35.00;22.85;;;666.50;1766.40;;;;;;4976187;28;20368;-80
2022/05/24 09:54:55;;;;;;;10.80;3.95;;;691.30;1664.00;;;;;;4993676;28;20066;-79
2022/05/24 09:57:24;;;;;;;11.05;4.78;;;691.60;1715.20;;;;;;4993712;28;20387;-79
2022/05/24 10:00:20;;;;;;;9.20;4.28;;;691.70;1587.20;;;;;;4976491;28;20034;-83
2022/05/24 10:02:47;;;;;;;;;;;691.90;1561.60;;;;;;4994263;28;20483;-80
2022/05/24 10:05:22;;;;;;;10.32;4.45;;;692.10;1536.00;;;;;;4993536;28;19913;-81
2022/05/24 10:08:01;;;;;;;17.92;5.35;;;716.80;1536.00;;;;;;4993630;28;20467;-79
2022/05/24 10:10:45;;;;;;;9.27;4.47;;;716.90;1536.00;;;;;;4993519;28;20376;-81
2022/05/24 10:13:53;;;;;;;9.65;4.70;;;717.00;1484.80;;;;;;4993519;28;20015;-79
2022/05/24 10:16:34;;;;;;;13.35;4.72;;;717.10;1561.60;;;;;;4914253;29;20048;-79
2022/05/24 10:19:28;;;;;;;10.50;4.88;;;717.10;1510.40;;;;;;4913978;29;20036;-79
2022/05/24 10:22:10;;;;;;;9.63;4.93;;;717.10;1510.40;;;;;;4894875;29;20512;-80
2022/05/24 10:24:45;;;;;;;14.75;4.93;;;717.20;1510.40;;;;;;4895302;29;20037;-80
2022/05/24 10:27:37;;;;;;;8.35;4.97;;;717.30;1510.40;;;;;;4895327;29;20032;-81
2022/05/24 10:30:49;;;;;;;11.45;5.30;;;717.60;1484.80;;;;;;4879468;29;20026;-79
2022/05/24 10:39:20;;;;;;;8.95;5.63;;;;;;;;;;4839584;29;20085;-81
2022/05/24 10:41:52;;;;;;;11.13;5.53;;;742.50;1433.60;;;;;;4839499;29;20573;-79
2022/05/24 10:44:42;;;;;;;17.63;5.68;;;742.60;1459.20;;;;;;4839807;29;20074;-80
2022/05/24 10:47:31;;;;;;;12.73;5.18;;;742.90;1459.20;;;;;;4824208;29;20038;-78
2022/05/24 10:50:05;;;;;;;12.23;5.63;;;742.70;1459.20;;;;;;4838466;29;20102;-79
2022/05/24 10:52:52;;;;;;;11.50;4.60;;;742.60;1459.20;;;;;;4862268;29;20187;-81
2022/05/24 10:55:23;;;;;;;9.05;4.43;;;742.60;1484.80;;;;;;4895603;29;20047;-80
2022/05/24 10:58:04;;;;;;;14.70;6.10;;;742.80;1484.80;;;;;;4895149;29;20036;-81
2022/05/24 11:00:56;;;;;;;18.88;5.20;;;742.90;1484.80;;;;;;4879326;29;20040;-82
2022/05/24 11:03:36;;;;;;;10.40;5.53;;;743.00;1459.20;;;;;;4895271;29;20497;-81
2022/05/24 11:06:15;;;;;;;11.45;5.20;;;743.00;1459.20;;;;;;4877394;29;20503;-81
2022/05/24 11:08:49;;;;;;;16.38;5.13;;;743.00;1510.40;;;;;;4876823;29;20473;-81
2022/05/24 11:11:30;;;;;;;15.43;4.78;;;742.90;1459.20;;;;;;4961412;28;20493;-80
2022/05/24 11:14:20;;;;;;;9.85;5.05;;;743.10;1459.20;;;;;;4975260;28;20041;-81
2022/05/24 11:16:49;;;;;;;13.05;5.18;;;768.00;1408.00;;;;;;4973346;28;20187;-83
2022/05/24 11:19:22;;;;;;;11.82;6.15;;;768.10;1459.20;;;;;;4974890;28;20491;-81
2022/05/24 11:22:01;;;;;;;15.02;5.28;;;768.10;1484.80;;;;;;4974951;28;20035;-82
2022/05/24 11:25:01;;;;;;;9.88;5.40;;;768.20;1408.00;;;;;;4977667;28;20046;-81
2022/05/24 11:27:39;;;;;;;12.75;5.50;;;768.40;1382.40;;;;;;4989634;28;20077;-80
2022/05/24 11:30:26;;;;;;;16.00;5.75;;;768.50;1408.00;;;;;;4978538;28;20034;-80
2022/05/24 11:32:54;;;;;;;8.55;5.20;;;768.50;1459.20;;;;;;4969823;28;20034;-79
2022/05/24 11:35:20;;;;;;;14.07;5.68;;;768.40;1433.60;;;;;;4991968;28;20101;-78
2022/05/24 11:37:51;;;;;;;15.82;5.82;;;768.40;1433.60;;;;;;4991936;28;20117;-78
2022/05/24 11:40:22;;;;;;;9.88;5.53;;;768.40;1433.60;;;;;;4989241;28;20034;-81
2022/05/24 11:42:47;;;;;;;12.50;5.60;;;768.60;1433.60;;;;;;4958922;28;20027;-78
2022/05/24 11:45:28;;;;;;;13.73;6.93;;;768.40;1459.20;;;;;;4974855;28;20393;-79
2022/05/24 11:48:03;;;;;;;10.80;5.30;;;768.50;1408.00;;;;;;4990663;28;20026;-80
2022/05/24 11:50:31;;;;;;;17.02;5.63;;;768.70;1408.00;;;;;;4989992;28;20015;-77
2022/05/24 11:53:03;;;;;;;8.25;5.47;;;768.70;1356.80;;;;;;4974335;28;20040;-78
2022/05/24 11:55:57;;;;;;;10.23;6.07;;;793.60;1356.80;;;;;;4989733;28;20053;-78
2022/05/24 11:58:23;;;;;;;8.55;6.30;;;793.70;1382.40;;;;;;4974260;28;20034;-79
2022/05/24 12:00:58;;;;;;;12.48;5.38;;;793.90;1356.80;;;;;;4992881;28;20076;-79
2022/05/24 12:10:11;;;;;;;9.70;5.63;;;793.90;1356.80;;;;;;4993472;28;20045;-78
2022/05/24 12:12:50;;;;;;;11.23;5.60;;;794.10;1356.80;;;;;;4859267;29;20033;-77
2022/05/24 12:15:25;;;;;;;20.80;6.63;;;794.10;1382.40;;;;;;4843878;29;20792;-79
2022/05/24 12:17:59;;;;;;;8.65;5.65;;;794.30;1356.80;;;;;;4859459;29;20076;-79
2022/05/24 12:20:46;;;;;;;7.22;5.38;;;794.30;1331.20;;;;;;4859418;29;20634;-80
2022/05/24 12:23:16;;;;;;;10.98;5.40;;;794.40;1356.80;;;;;;4855696;29;20052;-78
2022/05/24 12:26:13;;;;;;;19.85;5.45;;;794.50;1280.00;;;;;;4859485;29;20064;-77
2022/05/24 12:28:43;;;;;;;9.45;6.22;;;819.30;1280.00;;;;;;4859279;29;20037;-81
2022/05/24 12:31:17;;;;;;;7.53;4.88;;;819.40;1280.00;;;;;;4843748;29;20030;-82
2022/05/24 12:34:01;;;;;;;11.55;5.65;;;819.40;1254.40;;;;;;4859473;29;20046;-78
2022/05/24 12:36:39;;;;;;;20.08;5.57;;;819.40;1382.40;;;;;;4843750;29;20541;-80
2022/05/24 12:39:07;;;;;;;11.85;5.65;;;794.50;1382.40;;;;;;4859345;29;20505;-79
2022/05/24 12:41:45;;;;;;;8.63;5.47;;;819.40;1382.40;;;;;;4859634;29;20053;-80
2022/05/24 12:44:31;;;;;;;15.15;5.00;;;794.50;1408.00;;;;;;4856876;29;20022;-80
2022/05/24 12:47:05;;;;;;;10.95;4.95;;;794.20;1356.80;;;;;;4882253;29;20187;-79
2022/05/24 12:49:37;;;;;;;11.55;5.53;;;794.00;1356.80;;;;;;4982945;28;20493;-79
2022/05/24 12:52:12;;;;;;;13.85;5.45;;;768.90;1382.40;;;;;;4994167;28;20046;-79
2022/05/24 12:54:45;;;;;;;10.43;4.93;;;768.90;1382.40;;;;;;4980015;28;20040;-79
2022/05/24 12:57:17;;;;;;;11.55;5.50;;;768.80;1382.40;;;;;;4978309;28;20023;-78
2022/05/24 12:59:53;;;;;;;11.80;5.22;;;768.60;1433.60;;;;;;4973351;28;20066;-79
2022/05/24 13:02:45;;;;;;;13.45;6.60;;;768.40;1459.20;;;;;;4993213;28;20058;-79
2022/05/24 13:05:11;;;;;;;11.77;5.40;;;768.40;1459.20;;;;;;4982605;28;20037;-79
2022/05/24 13:07:57;;;;;;;13.07;5.38;;;768.40;1433.60;;;;;;4984747;28;20038;-78
2022/05/24 13:10:31;;;;;;;10.88;5.43;;;768.30;1459.20;;;;;;4992135;28;20058;-80
2022/05/24 13:13:06;;;;;;;10.35;6.13;;;768.10;1484.80;;;;;;4990194;28;20085;-79
2022/05/24 13:16:05;;;;;;;6.47;4.95;;;768.10;1459.20;;;;;;4983103;28;20058;-80
2022/05/24 13:18:34;;;;;;;8.93;5.80;;;768.20;1459.20;;;;;;4991482;28;20030;-80
2022/05/24 13:21:03;;;;;;;8.13;4.90;;;768.10;1459.20;;;;;;4976331;28;20060;-78
2022/05/24 13:23:36;;;;;;;14.65;6.20;;;768.10;1382.40;;;;;;5006866;28;20046;-79
2022/05/24 13:26:02;;;;;;;9.90;5.13;;;768.40;1382.40;;;;;;5013497;28;20029;-79
2022/05/24 13:28:45;;;;;;;10.82;6.07;;;793.60;1382.40;;;;;;5013850;28;20033;-83